createdAt,value
2018-06-27T00:02:26.360Z,20.43
2018-06-27T00:04:56.328Z,19.73
2018-06-27T00:07:26.637Z,20.20
2018-06-27T00:09:56.440Z,21.97
2018-06-27T00:12:26.250Z,20.20
2018-06-27T00:14:56.604Z,20.80
2018-06-27T00:17:27.320Z,19.50
2018-06-27T00:19:57.173Z,20.60
2018-06-27T00:22:27.000Z,22.97
2018-06-27T00:24:56.872Z,20.47
2018-06-27T00:27:26.651Z,25.97
2018-06-27T00:29:56.577Z,23.03
2018-06-27T00:32:26.364Z,22.00
2018-06-27T00:34:56.163Z,19.47
2018-06-27T00:37:25.971Z,19.53
2018-06-27T00:39:55.860Z,19.90
2018-06-27T00:42:26.475Z,25.80
2018-06-27T00:44:56.237Z,20.53
2018-06-27T00:47:26.101Z,21.47
2018-06-27T00:49:55.890Z,21.03
2018-06-27T00:52:25.697Z,21.10
2018-06-27T00:54:55.490Z,19.70
2018-06-27T00:57:25.317Z,18.33
2018-06-27T00:59:55.125Z,19.60
2018-06-27T01:02:24.948Z,20.50
2018-06-27T01:04:54.740Z,18.70
2018-06-27T01:07:24.530Z,20.93
2018-06-27T01:09:54.410Z,19.43
2018-06-27T01:12:24.253Z,19.67
2018-06-27T01:14:54.045Z,19.27
2018-06-27T01:17:24.344Z,19.30
2018-06-27T01:19:54.329Z,20.30
2018-06-27T01:22:24.468Z,17.73
2018-06-27T01:24:54.306Z,19.10
2018-06-27T01:27:24.184Z,18.03
2018-06-27T01:29:53.675Z,18.03
2018-06-27T01:32:23.319Z,19.03
2018-06-27T01:34:53.110Z,18.40
2018-06-27T01:37:22.915Z,17.97
2018-06-27T01:39:52.724Z,18.27
2018-06-27T01:42:22.541Z,20.47
2018-06-27T01:44:52.840Z,18.27
2018-06-27T01:47:22.669Z,20.10
2018-06-27T01:49:52.536Z,18.20
2018-06-27T01:52:22.353Z,18.30
2018-06-27T01:54:52.476Z,19.23
2018-06-27T01:57:22.314Z,26.30
2018-06-27T01:59:52.584Z,22.73
2018-06-27T02:02:23.093Z,20.83
2018-06-27T02:04:52.940Z,23.87
2018-06-27T02:07:22.812Z,17.17
2018-06-27T02:09:52.621Z,18.20
2018-06-27T02:12:22.084Z,17.97
2018-06-27T02:14:51.644Z,19.70
2018-06-27T02:17:21.110Z,27.23
2018-06-27T02:19:50.684Z,29.50
2018-06-27T02:22:20.456Z,21.20
2018-06-27T02:24:51.049Z,17.70
2018-06-27T02:27:20.887Z,19.63
2018-06-27T02:29:50.692Z,18.73
2018-06-27T02:32:20.493Z,17.43
2018-06-27T02:34:50.255Z,16.90
2018-06-27T02:37:20.094Z,16.40
2018-06-27T02:39:50.230Z,19.03
2018-06-27T02:42:20.059Z,17.93
2018-06-27T02:44:49.944Z,17.90
2018-06-27T02:47:19.721Z,17.03
2018-06-27T02:49:49.624Z,16.27
2018-06-27T02:52:20.058Z,18.40
2018-06-27T02:54:49.894Z,16.43
2018-06-27T02:57:19.881Z,19.10
2018-06-27T02:59:50.506Z,17.53
2018-06-27T03:02:20.113Z,17.50
2018-06-27T03:04:49.872Z,17.97
2018-06-27T03:07:20.197Z,17.40
2018-06-27T03:09:50.112Z,18.73
2018-06-27T03:12:19.905Z,16.43
2018-06-27T03:14:49.668Z,47.90
2018-06-27T03:17:19.470Z,22.00
2018-06-27T03:19:49.236Z,19.07
2018-06-27T03:22:19.010Z,27.37
2018-06-27T03:24:49.497Z,16.57
2018-06-27T03:27:19.299Z,20.13
2018-06-27T03:29:49.732Z,17.27
2018-06-27T03:32:19.557Z,16.47
2018-06-27T03:34:49.334Z,17.20
2018-06-27T03:37:19.408Z,15.97
2018-06-27T03:39:50.000Z,18.00
2018-06-27T03:42:19.817Z,18.17
2018-06-27T03:44:49.611Z,17.90
2018-06-27T03:47:19.426Z,15.80
2018-06-27T03:49:49.195Z,16.47
2018-06-27T03:52:19.759Z,16.20
2018-06-27T03:54:49.570Z,19.90
2018-06-27T03:57:19.447Z,23.63
2018-06-27T03:59:49.210Z,16.20
2018-06-27T04:02:18.980Z,18.93
2018-06-27T04:04:50.333Z,25.90
2018-06-27T04:07:20.126Z,25.47
2018-06-27T04:09:50.336Z,21.23
2018-06-27T04:12:20.541Z,19.77
2018-06-27T04:14:50.060Z,35.43
2018-06-27T04:17:19.580Z,33.77
2018-06-27T04:19:49.357Z,35.87
2018-06-27T04:22:24.367Z,38.60
2018-06-27T04:24:54.161Z,42.57
2018-06-27T04:27:23.940Z,39.00
2018-06-27T04:29:54.060Z,26.73
2018-06-27T04:32:23.896Z,36.00
2018-06-27T04:34:53.717Z,38.47
2018-06-27T04:37:24.351Z,34.13
2018-06-27T04:39:55.265Z,29.50
2018-06-27T04:42:25.053Z,34.03
2018-06-27T04:44:54.922Z,36.67
2018-06-27T04:47:24.764Z,23.30
2018-06-27T04:49:54.583Z,24.73
2018-06-27T04:52:25.029Z,28.93
2018-06-27T04:54:54.918Z,25.13
2018-06-27T04:57:24.679Z,34.03
2018-06-27T04:59:55.014Z,25.30
2018-06-27T05:02:24.828Z,19.63
2018-06-27T05:04:54.632Z,21.27
2018-06-27T05:07:24.482Z,21.40
2018-06-27T05:09:54.220Z,28.40
2018-06-27T05:12:24.040Z,19.13
2018-06-27T05:14:53.838Z,27.13
2018-06-27T05:17:23.706Z,23.53
2018-06-27T05:19:53.476Z,17.83
2018-06-27T05:22:23.335Z,21.47
2018-06-27T05:24:53.930Z,19.33
2018-06-27T05:27:23.790Z,20.70
2018-06-27T05:29:54.236Z,23.80
2018-06-27T05:32:24.032Z,25.23
2018-06-27T05:34:53.813Z,25.33
2018-06-27T05:37:23.594Z,29.50
2018-06-27T05:39:53.048Z,37.47
2018-06-27T05:42:22.699Z,25.03
2018-06-27T05:44:52.148Z,24.43
2018-06-27T05:47:21.829Z,29.73
2018-06-27T05:49:51.628Z,26.97
2018-06-27T05:52:22.044Z,28.63
2018-06-27T05:54:57.084Z,32.33
2018-06-27T05:57:26.832Z,30.53
2018-06-27T05:59:56.645Z,32.53
2018-06-27T06:02:26.425Z,32.20
2018-06-27T06:04:56.237Z,32.97
2018-06-27T06:07:26.452Z,35.70
2018-06-27T06:09:56.254Z,31.07
2018-06-27T06:12:25.720Z,29.73
2018-06-27T06:14:55.723Z,33.33
2018-06-27T06:17:26.088Z,35.90
2018-06-27T06:19:55.876Z,33.17
2018-06-27T06:22:25.769Z,33.70
2018-06-27T06:24:56.244Z,36.37
2018-06-27T06:27:26.020Z,33.17
2018-06-27T06:29:55.867Z,32.27
2018-06-27T06:32:25.671Z,33.73
2018-06-27T06:34:56.069Z,34.30
2018-06-27T06:37:25.833Z,33.50
2018-06-27T06:39:55.641Z,33.40
2018-06-27T06:42:25.444Z,32.17
2018-06-27T06:44:55.199Z,33.00
2018-06-27T06:47:25.986Z,34.37
2018-06-27T06:49:55.760Z,33.27
2018-06-27T06:52:26.208Z,31.40
2018-06-27T06:54:56.673Z,38.03
2018-06-27T06:57:26.808Z,33.83
2018-06-27T06:59:56.409Z,34.63
2018-06-27T07:02:25.872Z,33.70
2018-06-27T07:04:56.093Z,34.97
2018-06-27T07:07:25.879Z,34.03
2018-06-27T07:09:55.685Z,33.23
2018-06-27T07:12:26.471Z,32.10
2018-06-27T07:14:56.304Z,34.50
2018-06-27T07:17:26.774Z,30.90
2018-06-27T07:19:56.868Z,34.00
2018-06-27T07:22:26.701Z,32.60
2018-06-27T07:24:56.525Z,28.47
2018-06-27T07:27:26.399Z,32.77
2018-06-27T07:29:55.848Z,29.00
2018-06-27T07:32:25.643Z,33.97
2018-06-27T07:34:55.413Z,27.87
2018-06-27T07:37:25.225Z,28.53
2018-06-27T07:39:55.051Z,30.47
2018-06-27T07:42:24.837Z,30.53
2018-06-27T07:44:55.381Z,29.93
2018-06-27T07:47:25.337Z,32.53
2018-06-27T07:49:55.589Z,28.13
2018-06-27T07:52:24.979Z,26.70
2018-06-27T07:54:54.559Z,28.80
2018-06-27T07:57:24.315Z,30.93
2018-06-27T07:59:53.839Z,25.07
2018-06-27T08:02:23.401Z,23.37
2018-06-27T08:04:53.175Z,25.10
2018-06-27T08:07:22.977Z,29.70
2018-06-27T08:09:52.769Z,33.13
2018-06-27T08:12:22.600Z,33.83
2018-06-27T08:14:52.331Z,24.10
2018-06-27T08:17:22.108Z,27.07
2018-06-27T08:19:51.911Z,25.13
2018-06-27T08:22:21.684Z,24.30
2018-06-27T08:24:51.536Z,33.40
2018-06-27T08:27:21.341Z,22.43
2018-06-27T08:29:51.168Z,26.80
2018-06-27T08:32:21.671Z,24.00
2018-06-27T08:34:51.479Z,22.90
2018-06-27T08:37:21.752Z,25.03
2018-06-27T08:39:51.666Z,22.83
2018-06-27T08:42:21.467Z,21.40
2018-06-27T08:44:51.318Z,27.13
2018-06-27T08:47:22.335Z,28.80
2018-06-27T08:49:52.233Z,18.73
2018-06-27T08:52:21.799Z,18.93
2018-06-27T08:54:51.628Z,23.23
2018-06-27T08:57:21.435Z,18.97
2018-06-27T08:59:51.258Z,17.97
2018-06-27T09:02:21.121Z,18.83
2018-06-27T09:04:50.940Z,21.63
2018-06-27T09:07:20.724Z,22.07
2018-06-27T09:09:50.509Z,17.37
2018-06-27T09:12:20.896Z,17.60
2018-06-27T09:14:50.748Z,19.30
2018-06-27T09:17:20.962Z,24.33
2018-06-27T09:19:50.764Z,18.60
2018-06-27T09:22:21.569Z,17.40
2018-06-27T09:24:51.566Z,16.43
2018-06-27T09:27:21.404Z,14.23
2018-06-27T09:29:51.290Z,16.60
2018-06-27T09:32:21.121Z,12.80
2018-06-27T09:34:50.907Z,18.73
2018-06-27T09:37:20.816Z,13.43
2018-06-27T09:39:51.102Z,11.60
2018-06-27T09:42:20.856Z,11.63
2018-06-27T09:44:50.638Z,13.60
2018-06-27T09:47:20.119Z,9.47
2018-06-27T09:49:50.477Z,9.50
2018-06-27T09:52:20.296Z,9.43
2018-06-27T09:54:50.169Z,9.73
2018-06-27T09:57:20.080Z,8.50
2018-06-27T09:59:49.841Z,9.63
2018-06-27T10:02:19.281Z,9.43
2018-06-27T10:04:49.101Z,6.63
2018-06-27T10:07:19.262Z,8.40
2018-06-27T10:09:49.050Z,9.10
2018-06-27T10:12:18.549Z,7.23
2018-06-27T10:14:48.145Z,8.27
2018-06-27T10:17:18.712Z,10.83
2018-06-27T10:19:48.523Z,6.70
2018-06-27T10:22:18.296Z,7.83
2018-06-27T10:24:48.096Z,5.90
2018-06-27T10:27:18.080Z,9.83
2018-06-27T10:29:48.340Z,7.43
2018-06-27T10:32:18.129Z,8.80
2018-06-27T10:34:47.975Z,9.17
2018-06-27T10:37:17.727Z,8.20
2018-06-27T10:39:47.830Z,7.40
2018-06-27T10:42:17.299Z,9.67
2018-06-27T10:44:46.850Z,10.10
2018-06-27T10:47:16.705Z,7.27
2018-06-27T10:49:46.840Z,7.50
2018-06-27T10:52:16.656Z,7.47
2018-06-27T10:54:53.833Z,5.13
2018-06-27T10:57:24.293Z,8.27
2018-06-27T10:59:54.581Z,7.70
2018-06-27T11:02:24.415Z,6.90
2018-06-27T11:04:54.188Z,6.17
2018-06-27T11:07:24.125Z,9.50
2018-06-27T11:09:53.936Z,4.83
2018-06-27T11:12:23.742Z,8.10
2018-06-27T11:14:54.228Z,5.23
2018-06-27T11:17:24.009Z,5.50
2018-06-27T11:19:53.866Z,6.43
2018-06-27T11:22:23.820Z,14.63
2018-06-27T11:24:53.848Z,8.10
2018-06-27T11:27:23.607Z,5.53
2018-06-27T11:29:53.506Z,9.57
2018-06-27T11:32:23.321Z,5.50
2018-06-27T11:34:53.721Z,5.10
2018-06-27T11:37:23.956Z,4.60
2018-06-27T11:39:54.382Z,4.90
2018-06-27T11:42:24.234Z,4.07
2018-06-27T11:44:54.001Z,6.00
2018-06-27T11:47:24.777Z,5.50
2018-06-27T11:49:54.577Z,5.13
2018-06-27T11:52:24.057Z,6.77
2018-06-27T11:54:59.664Z,4.43
2018-06-27T11:57:29.452Z,4.87
2018-06-27T11:59:59.275Z,6.87
2018-06-27T12:02:29.016Z,4.00
2018-06-27T12:04:58.823Z,4.27
2018-06-27T12:07:28.990Z,4.10
2018-06-27T12:09:59.044Z,4.27
2018-06-27T12:12:28.908Z,4.13
2018-06-27T12:14:58.823Z,4.80
2018-06-27T12:17:28.641Z,7.30
2018-06-27T12:19:58.572Z,4.93
2018-06-27T12:22:28.711Z,5.73
2018-06-27T12:24:58.517Z,4.33
2018-06-27T12:27:28.344Z,5.33
2018-06-27T12:29:58.168Z,4.73
2018-06-27T12:32:27.967Z,5.90
2018-06-27T12:34:57.770Z,4.40
2018-06-27T12:37:28.525Z,4.70
2018-06-27T12:39:58.436Z,3.80
2018-06-27T12:42:27.962Z,4.87
2018-06-27T12:44:57.600Z,6.67
2018-06-27T12:47:27.362Z,5.60
2018-06-27T12:49:57.253Z,4.83
2018-06-27T12:52:26.684Z,4.73
2018-06-27T12:55:01.767Z,4.90
2018-06-27T12:57:32.755Z,5.07
2018-06-27T13:00:03.594Z,5.87
2018-06-27T13:02:33.365Z,3.53
2018-06-27T13:05:03.491Z,5.00
2018-06-27T13:07:33.847Z,4.37
2018-06-27T13:10:03.706Z,3.03
2018-06-27T13:12:34.516Z,3.53
2018-06-27T13:15:05.070Z,5.20
2018-06-27T13:17:35.604Z,3.13
2018-06-27T13:20:06.287Z,4.07
2018-06-27T13:22:36.773Z,3.07
2018-06-27T13:25:06.281Z,4.73
2018-06-27T13:27:35.988Z,3.73
2018-06-27T13:30:06.529Z,8.50
2018-06-27T13:32:37.718Z,2.30
2018-06-27T13:35:08.529Z,4.83
2018-06-27T13:37:38.570Z,2.77
2018-06-27T13:40:08.030Z,6.37
2018-06-27T13:42:37.789Z,2.87
2018-06-27T13:45:07.591Z,3.00
2018-06-27T13:47:37.390Z,7.70
2018-06-27T13:50:07.255Z,2.70
2018-06-27T13:52:37.105Z,3.30
2018-06-27T13:55:07.595Z,3.23
2018-06-27T13:57:37.406Z,2.93
2018-06-27T14:00:07.262Z,2.73
2018-06-27T14:02:37.081Z,3.07
2018-06-27T14:05:06.884Z,3.40
2018-06-27T14:07:36.710Z,3.23
2018-06-27T14:10:06.619Z,4.17
2018-06-27T14:12:36.457Z,6.13
2018-06-27T14:15:06.320Z,4.03
2018-06-27T14:17:36.149Z,3.57
2018-06-27T14:20:06.025Z,4.80
2018-06-27T14:22:35.872Z,3.37
2018-06-27T14:25:05.832Z,4.00
2018-06-27T14:27:36.302Z,3.60
2018-06-27T14:30:06.088Z,4.93
2018-06-27T14:32:35.916Z,3.60
2018-06-27T14:35:05.728Z,3.70
2018-06-27T14:37:35.534Z,3.10
2018-06-27T14:40:05.665Z,3.90
2018-06-27T14:42:35.469Z,3.27
2018-06-27T14:45:05.383Z,3.93
2018-06-27T14:47:35.659Z,3.50
2018-06-27T14:50:05.755Z,4.13
2018-06-27T14:52:35.566Z,7.37
2018-06-27T14:55:08.056Z,5.90
2018-06-27T14:57:38.372Z,3.60
2018-06-27T15:00:09.419Z,4.80
2018-06-27T15:02:39.236Z,3.10
2018-06-27T15:05:09.134Z,3.50
2018-06-27T15:07:38.594Z,2.90
2018-06-27T15:10:08.891Z,3.53
2018-06-27T15:12:39.614Z,3.37
2018-06-27T15:15:09.458Z,3.60
2018-06-27T15:17:39.726Z,3.20
2018-06-27T15:20:09.542Z,2.67
2018-06-27T15:22:39.466Z,3.43
2018-06-27T15:25:10.534Z,2.90
2018-06-27T15:27:40.905Z,2.90
2018-06-27T15:30:11.139Z,2.50
2018-06-27T15:32:40.778Z,2.67
2018-06-27T15:35:10.838Z,2.87
2018-06-27T15:37:40.548Z,6.53
2018-06-27T15:40:10.394Z,2.57
2018-06-27T15:42:40.213Z,2.70
2018-06-27T15:45:10.587Z,2.77
2018-06-27T15:47:41.093Z,3.20
2018-06-27T15:50:11.329Z,4.43
2018-06-27T15:52:42.050Z,4.23
2018-06-27T15:55:11.922Z,2.93
2018-06-27T15:57:41.885Z,2.97
2018-06-27T16:00:11.696Z,2.17
2018-06-27T16:02:41.527Z,3.13
2018-06-27T16:05:11.957Z,2.33
2018-06-27T16:07:42.485Z,3.23
2018-06-27T16:10:12.930Z,2.53
2018-06-27T16:12:42.730Z,2.33
2018-06-27T16:15:12.565Z,2.20
2018-06-27T16:17:42.854Z,2.03
2018-06-27T16:20:12.702Z,3.90
2018-06-27T16:22:42.799Z,3.37
2018-06-27T16:25:12.654Z,2.70
2018-06-27T16:27:42.725Z,2.63
2018-06-27T16:30:12.713Z,2.07
2018-06-27T16:32:42.490Z,2.10
2018-06-27T16:35:13.071Z,3.10
2018-06-27T16:37:42.926Z,1.80
2018-06-27T16:40:12.743Z,2.00
2018-06-27T16:42:43.210Z,2.77
2018-06-27T16:45:13.174Z,2.90
2018-06-27T16:47:43.069Z,2.17
2018-06-27T16:50:13.819Z,2.00
2018-06-27T16:52:43.653Z,1.90
2018-06-27T16:55:13.535Z,2.07
2018-06-27T16:57:43.412Z,2.47
2018-06-27T17:00:13.558Z,1.70
2018-06-27T17:02:43.469Z,6.50
2018-06-27T17:05:13.699Z,3.00
2018-06-27T17:07:43.781Z,2.33
2018-06-27T17:10:13.651Z,1.97
2018-06-27T17:12:45.303Z,2.27
2018-06-27T17:15:15.796Z,2.07
2018-06-27T17:17:46.628Z,1.80
2018-06-27T17:20:17.761Z,2.43
2018-06-27T17:22:48.194Z,1.80
2018-06-27T17:25:18.080Z,2.80
2018-06-27T17:27:48.387Z,1.87
2018-06-27T17:30:18.246Z,2.17
2018-06-27T17:32:48.613Z,4.43
2018-06-27T17:35:18.596Z,2.37
2018-06-27T17:37:48.894Z,2.23
2018-06-27T17:40:18.748Z,2.57
2018-06-27T17:42:49.664Z,2.07
2018-06-27T17:45:20.010Z,2.00
2018-06-27T17:47:49.908Z,2.00
2018-06-27T17:50:21.161Z,2.07
2018-06-27T17:52:50.995Z,2.10
2018-06-27T17:55:20.869Z,2.40
2018-06-27T17:57:52.101Z,2.27
2018-06-27T18:00:22.560Z,2.00
2018-06-27T18:02:53.104Z,2.70
2018-06-27T18:05:23.600Z,2.77
2018-06-27T18:07:53.748Z,2.53
2018-06-27T18:10:23.226Z,2.27
2018-06-27T18:12:53.102Z,2.40
2018-06-27T18:15:22.932Z,2.07
2018-06-27T18:17:53.433Z,3.13
2018-06-27T18:20:23.258Z,2.70
2018-06-27T18:22:53.082Z,2.17
2018-06-27T18:25:23.725Z,2.07
2018-06-27T18:27:53.597Z,2.60
2018-06-27T18:30:23.138Z,4.90
2018-06-27T18:32:52.861Z,6.53
2018-06-27T18:35:23.697Z,2.40
2018-06-27T18:37:53.635Z,2.30
2018-06-27T18:40:23.265Z,3.20
2018-06-27T18:42:53.052Z,2.20
2018-06-27T18:45:22.906Z,2.27
2018-06-27T18:47:53.147Z,2.37
2018-06-27T18:50:22.968Z,4.37
2018-06-27T18:52:52.825Z,2.00
2018-06-27T18:55:22.746Z,2.27
2018-06-27T18:57:53.156Z,2.40
2018-06-27T19:00:22.685Z,2.37
2018-06-27T19:02:53.809Z,5.00
2018-06-27T19:05:23.804Z,13.07
2018-06-27T19:07:53.843Z,6.03
2018-06-27T19:10:23.652Z,3.23
2018-06-27T19:12:54.408Z,2.60
2018-06-27T19:15:24.205Z,2.20
2018-06-27T19:17:54.283Z,2.70
2018-06-27T19:20:25.800Z,7.17
2018-06-27T19:22:55.739Z,2.23
2018-06-27T19:25:26.750Z,3.13
2018-06-27T19:27:56.726Z,5.03
2018-06-27T19:30:26.601Z,4.00
2018-06-27T19:32:58.889Z,3.77
2018-06-27T19:35:29.449Z,4.03
2018-06-27T19:37:59.029Z,4.37
2018-06-27T19:40:29.322Z,4.03
2018-06-27T19:42:59.254Z,3.57
2018-06-27T19:45:29.221Z,3.60
2018-06-27T19:47:59.985Z,3.37
2018-06-27T19:50:33.910Z,3.50
2018-06-27T19:56:13.348Z,33.03
2018-06-27T19:58:43.181Z,9.13
2018-06-27T20:01:13.031Z,8.23
2018-06-27T20:03:42.953Z,3.73
2018-06-27T20:06:12.770Z,3.57
2018-06-27T20:08:42.604Z,3.50
2018-06-27T20:11:12.555Z,15.90
2018-06-27T20:13:42.368Z,19.37
2018-06-27T20:16:18.469Z,11.43
2018-06-27T20:18:48.573Z,4.87
2018-06-27T20:21:18.502Z,4.90
2018-06-27T20:23:48.314Z,3.20
2018-06-27T20:26:18.194Z,2.93
2018-06-27T20:28:48.244Z,3.17
2018-06-27T20:31:18.127Z,2.20
2018-06-27T20:33:47.906Z,2.57
2018-06-27T20:36:17.744Z,2.70
2018-06-27T20:38:47.558Z,2.73
2018-06-27T20:41:17.354Z,2.37
2018-06-27T20:43:47.179Z,3.10
2018-06-27T20:46:18.305Z,7.20
2018-06-27T20:48:48.238Z,3.33
2018-06-27T20:51:18.139Z,3.10
2018-06-27T20:53:47.954Z,3.27
2018-06-27T20:56:17.761Z,3.20
2018-06-27T20:58:47.975Z,3.90
2018-06-27T21:01:17.861Z,3.37
2018-06-27T21:03:47.613Z,3.33
2018-06-27T21:06:17.420Z,3.93
2018-06-27T21:08:47.416Z,3.50
2018-06-27T21:11:17.209Z,3.30
2018-06-27T21:13:46.989Z,3.90
2018-06-27T21:16:16.909Z,3.30
2018-06-27T21:18:46.787Z,3.30
2018-06-27T21:21:16.637Z,3.87
2018-06-27T21:23:46.513Z,3.70
2018-06-27T21:26:16.322Z,3.50
2018-06-27T21:28:46.148Z,3.97
2018-06-27T21:31:15.910Z,4.23
2018-06-27T21:33:45.794Z,4.13
2018-06-27T21:36:22.009Z,4.07
2018-06-27T21:38:51.882Z,3.57
2018-06-27T21:41:21.729Z,4.23
2018-06-27T21:43:51.509Z,4.37
2018-06-27T21:46:21.362Z,4.17
2018-06-27T21:48:51.136Z,4.70
2018-06-27T21:51:21.448Z,4.93
2018-06-27T21:53:51.260Z,4.40
2018-06-27T21:56:21.064Z,4.73
2018-06-27T21:58:50.857Z,5.33
2018-06-27T22:01:20.673Z,3.70
2018-06-27T22:03:50.489Z,4.40
2018-06-27T22:06:20.265Z,5.07
2018-06-27T22:08:50.141Z,5.00
2018-06-27T22:11:19.981Z,4.83
2018-06-27T22:13:49.772Z,4.80
2018-06-27T22:16:19.580Z,5.40
2018-06-27T22:18:49.473Z,7.27
2018-06-27T22:21:19.266Z,7.30
2018-06-27T22:23:49.071Z,5.33
2018-06-27T22:26:18.868Z,6.30
2018-06-27T22:28:48.719Z,6.90
2018-06-27T22:31:18.540Z,5.30
2018-06-27T22:33:48.362Z,5.77
2018-06-27T22:36:18.210Z,4.63
2018-06-27T22:38:48.298Z,4.80
2018-06-27T22:41:18.096Z,7.00
2018-06-27T22:43:47.879Z,5.70
2018-06-27T22:46:17.713Z,4.93
2018-06-27T22:48:47.503Z,7.67
2018-06-27T22:51:17.260Z,4.70
2018-06-27T22:53:47.093Z,5.20
2018-06-27T22:56:16.867Z,4.50
2018-06-27T22:58:46.613Z,5.03
2018-06-27T23:01:16.436Z,4.73
2018-06-27T23:03:46.261Z,8.90
2018-06-27T23:06:16.064Z,4.80
2018-06-27T23:08:45.889Z,7.03
2018-06-27T23:11:15.677Z,5.17
2018-06-27T23:13:45.449Z,6.20
2018-06-27T23:16:15.263Z,5.77
2018-06-27T23:18:45.053Z,4.77
2018-06-27T23:21:14.848Z,4.60
2018-06-27T23:23:44.623Z,9.90
2018-06-27T23:26:14.409Z,5.10
2018-06-27T23:28:44.178Z,5.50
2018-06-27T23:31:13.961Z,4.93
2018-06-27T23:33:43.775Z,5.10
2018-06-27T23:36:13.600Z,4.70
2018-06-27T23:38:43.366Z,4.83
2018-06-27T23:41:13.204Z,4.83
2018-06-27T23:43:42.991Z,5.20
2018-06-27T23:46:12.833Z,5.37
2018-06-27T23:48:42.853Z,4.40
2018-06-27T23:51:12.757Z,5.03
2018-06-27T23:53:42.591Z,5.40
2018-06-27T23:56:12.341Z,6.67
2018-06-27T23:58:42.200Z,4.70
